sensor_id;sensor_type;location;lat;lon;timestamp;pressure;altitude;pressure_sealevel;temperature;humidity
64933;BME280;51446;53.850;10.662;2022-08-19T00:00:39;101085.16;;;19.61;88.88
64933;BME280;51446;53.850;10.662;2022-08-19T00:03:05;101089.56;;;19.62;89.12
64933;BME280;51446;53.850;10.662;2022-08-19T00:05:32;101083.50;;;19.55;89.43
64933;BME280;51446;53.850;10.662;2022-08-19T00:07:57;101092.28;;;19.58;89.95
64933;BME280;51446;53.850;10.662;2022-08-19T00:10:23;101083.88;;;19.85;89.03
64933;BME280;51446;53.850;10.662;2022-08-19T00:12:49;101075.88;;;19.88;87.39
64933;BME280;51446;53.850;10.662;2022-08-19T00:15:17;101075.50;;;19.55;89.59
64933;BME280;51446;53.850;10.662;2022-08-19T00:17:44;101071.56;;;19.76;90.65
64933;BME280;51446;53.850;10.662;2022-08-19T00:20:13;101063.03;;;19.57;91.47
64933;BME280;51446;53.850;10.662;2022-08-19T00:22:41;101059.25;;;19.70;90.58
64933;BME280;51446;53.850;10.662;2022-08-19T00:25:07;101053.25;;;19.61;90.59
64933;BME280;51446;53.850;10.662;2022-08-19T00:27:33;101043.56;;;19.56;90.77
64933;BME280;51446;53.850;10.662;2022-08-19T00:29:58;101049.75;;;19.57;90.97
64933;BME280;51446;53.850;10.662;2022-08-19T00:32:24;101049.97;;;19.43;91.75
64933;BME280;51446;53.850;10.662;2022-08-19T00:34:50;101047.34;;;19.41;92.45
64933;BME280;51446;53.850;10.662;2022-08-19T00:37:18;101039.88;;;19.64;92.06
64933;BME280;51446;53.850;10.662;2022-08-19T00:39:44;101041.66;;;19.63;91.95
64933;BME280;51446;53.850;10.662;2022-08-19T00:42:09;101025.72;;;19.62;90.75
64933;BME280;51446;53.850;10.662;2022-08-19T00:44:34;101040.53;;;19.80;90.91
64933;BME280;51446;53.850;10.662;2022-08-19T00:47:00;101036.47;;;19.55;91.04
64933;BME280;51446;53.850;10.662;2022-08-19T00:49:30;101029.53;;;19.47;91.50
64933;BME280;51446;53.850;10.662;2022-08-19T00:52:01;101028.81;;;19.35;92.50
64933;BME280;51446;53.850;10.662;2022-08-19T00:54:28;101031.66;;;19.23;93.34
64933;BME280;51446;53.850;10.662;2022-08-19T00:56:57;101031.00;;;19.10;93.58
64933;BME280;51446;53.850;10.662;2022-08-19T00:59:22;101027.25;;;19.23;93.93
64933;BME280;51446;53.850;10.662;2022-08-19T01:01:48;101027.34;;;19.19;94.12
64933;BME280;51446;53.850;10.662;2022-08-19T01:04:13;101025.09;;;19.46;93.19
64933;BME280;51446;53.850;10.662;2022-08-19T01:06:39;101022.66;;;19.35;92.16
64933;BME280;51446;53.850;10.662;2022-08-19T01:09:06;101020.84;;;19.35;92.92
64933;BME280;51446;53.850;10.662;2022-08-19T01:11:34;101016.63;;;19.23;93.67
64933;BME280;51446;53.850;10.662;2022-08-19T01:14:00;101007.25;;;19.54;92.66
64933;BME280;51446;53.850;10.662;2022-08-19T01:16:27;101006.63;;;19.38;91.88
64933;BME280;51446;53.850;10.662;2022-08-19T01:18:53;101002.72;;;19.57;91.65
64933;BME280;51446;53.850;10.662;2022-08-19T01:21:38;101007.13;;;19.60;92.38
64933;BME280;51446;53.850;10.662;2022-08-19T01:24:05;100993.28;;;19.41;91.42
64933;BME280;51446;53.850;10.662;2022-08-19T01:26:30;101005.63;;;19.45;92.68
64933;BME280;51446;53.850;10.662;2022-08-19T01:28:57;101005.44;;;19.54;94.14
64933;BME280;51446;53.850;10.662;2022-08-19T01:31:26;101004.41;;;19.63;92.49
64933;BME280;51446;53.850;10.662;2022-08-19T01:33:56;101006.00;;;19.72;90.96
64933;BME280;51446;53.850;10.662;2022-08-19T01:36:32;101000.53;;;19.31;92.22
64933;BME280;51446;53.850;10.662;2022-08-19T01:38:59;100996.16;;;19.27;92.59
64933;BME280;51446;53.850;10.662;2022-08-19T01:41:25;101007.53;;;19.37;93.34
64933;BME280;51446;53.850;10.662;2022-08-19T01:43:51;101013.34;;;19.61;91.53
64933;BME280;51446;53.850;10.662;2022-08-19T01:46:18;101015.28;;;19.51;91.46
64933;BME280;51446;53.850;10.662;2022-08-19T01:48:44;101013.59;;;19.45;91.61
64933;BME280;51446;53.850;10.662;2022-08-19T01:51:10;101010.66;;;19.62;92.10
64933;BME280;51446;53.850;10.662;2022-08-19T01:53:36;101012.47;;;19.58;92.38
64933;BME280;51446;53.850;10.662;2022-08-19T01:56:03;101007.28;;;19.51;90.95
64933;BME280;51446;53.850;10.662;2022-08-19T01:58:32;100998.41;;;19.50;91.31
64933;BME280;51446;53.850;10.662;2022-08-19T02:01:01;101000.09;;;19.56;90.85
64933;BME280;51446;53.850;10.662;2022-08-19T02:03:27;100999.72;;;19.28;92.45
64933;BME280;51446;53.850;10.662;2022-08-19T02:05:58;101004.78;;;19.41;92.15
64933;BME280;51446;53.850;10.662;2022-08-19T02:08:27;101010.22;;;19.35;93.45
64933;BME280;51446;53.850;10.662;2022-08-19T02:10:53;101003.19;;;19.31;93.83
64933;BME280;51446;53.850;10.662;2022-08-19T02:13:19;101009.97;;;19.51;92.48
64933;BME280;51446;53.850;10.662;2022-08-19T02:15:44;101003.72;;;19.52;92.26
64933;BME280;51446;53.850;10.662;2022-08-19T02:18:09;100992.91;;;19.61;91.98
64933;BME280;51446;53.850;10.662;2022-08-19T02:20:37;101003.47;;;19.66;92.36
64933;BME280;51446;53.850;10.662;2022-08-19T02:23:02;100993.28;;;19.41;93.07
64933;BME280;51446;53.850;10.662;2022-08-19T02:25:28;100999.41;;;19.46;91.80
64933;BME280;51446;53.850;10.662;2022-08-19T02:27:53;100989.75;;;19.40;93.50
64933;BME280;51446;53.850;10.662;2022-08-19T02:30:20;100989.97;;;19.27;93.96
64933;BME280;51446;53.850;10.662;2022-08-19T02:32:45;100986.94;;;19.48;93.84
64933;BME280;51446;53.850;10.662;2022-08-19T02:35:12;100982.50;;;19.47;93.02
64933;BME280;51446;53.850;10.662;2022-08-19T02:37:37;100987.81;;;19.49;95.62
64933;BME280;51446;53.850;10.662;2022-08-19T02:40:21;101006.66;;;19.86;92.35
64933;BME280;51446;53.850;10.662;2022-08-19T02:42:46;100999.41;;;19.95;91.35
64933;BME280;51446;53.850;10.662;2022-08-19T02:45:13;101010.47;;;20.20;88.48
64933;BME280;51446;53.850;10.662;2022-08-19T02:47:39;101003.91;;;19.92;88.07
64933;BME280;51446;53.850;10.662;2022-08-19T02:50:05;101005.22;;;20.17;87.38
64933;BME280;51446;53.850;10.662;2022-08-19T02:52:32;101016.31;;;19.92;88.39
64933;BME280;51446;53.850;10.662;2022-08-19T02:54:58;101015.66;;;19.79;89.65
64933;BME280;51446;53.850;10.662;2022-08-19T02:57:24;101004.94;;;19.85;92.90
64933;BME280;51446;53.850;10.662;2022-08-19T02:59:49;101002.59;;;19.65;89.43
64933;BME280;51446;53.850;10.662;2022-08-19T03:02:15;101009.81;;;19.58;90.71
64933;BME280;51446;53.850;10.662;2022-08-19T03:04:40;101014.53;;;19.42;91.39
64933;BME280;51446;53.850;10.662;2022-08-19T03:07:06;101019.72;;;19.49;91.41
64933;BME280;51446;53.850;10.662;2022-08-19T03:09:31;101023.31;;;19.48;92.37
64933;BME280;51446;53.850;10.662;2022-08-19T03:11:57;101022.25;;;19.58;91.14
64933;BME280;51446;53.850;10.662;2022-08-19T03:14:22;101022.44;;;19.46;91.45
64933;BME280;51446;53.850;10.662;2022-08-19T03:16:51;101027.47;;;19.63;89.85
64933;BME280;51446;53.850;10.662;2022-08-19T03:19:19;101011.91;;;19.39;90.99
64933;BME280;51446;53.850;10.662;2022-08-19T03:21:46;101029.00;;;19.23;94.19
64933;BME280;51446;53.850;10.662;2022-08-19T03:24:13;101036.19;;;19.19;94.30
64933;BME280;51446;53.850;10.662;2022-08-19T03:26:41;101043.97;;;19.30;95.02
64933;BME280;51446;53.850;10.662;2022-08-19T03:29:08;101060.56;;;19.46;93.20
64933;BME280;51446;53.850;10.662;2022-08-19T03:31:36;101061.00;;;19.73;93.51
64933;BME280;51446;53.850;10.662;2022-08-19T03:34:02;101066.34;;;19.71;90.13
64933;BME280;51446;53.850;10.662;2022-08-19T03:36:27;101063.56;;;19.81;90.47
64933;BME280;51446;53.850;10.662;2022-08-19T03:38:55;101070.72;;;19.75;89.83
64933;BME280;51446;53.850;10.662;2022-08-19T03:41:23;101074.66;;;20.04;90.50
64933;BME280;51446;53.850;10.662;2022-08-19T03:43:49;101066.47;;;20.14;91.17
64933;BME280;51446;53.850;10.662;2022-08-19T03:46:17;101073.81;;;20.02;86.59
64933;BME280;51446;53.850;10.662;2022-08-19T03:48:46;101072.34;;;19.86;89.28
64933;BME280;51446;53.850;10.662;2022-08-19T03:51:17;101072.09;;;20.00;87.94
64933;BME280;51446;53.850;10.662;2022-08-19T03:53:44;101080.03;;;20.01;90.31
64933;BME280;51446;53.850;10.662;2022-08-19T03:56:10;101079.06;;;20.07;88.74
64933;BME280;51446;53.850;10.662;2022-08-19T03:58:35;101076.53;;;19.98;88.23
64933;BME280;51446;53.850;10.662;2022-08-19T04:01:10;101079.56;;;19.76;89.40
64933;BME280;51446;53.850;10.662;2022-08-19T04:03:36;101075.41;;;19.61;91.84
64933;BME280;51446;53.850;10.662;2022-08-19T04:06:16;101078.16;;;19.55;92.23
64933;BME280;51446;53.850;10.662;2022-08-19T04:08:43;101068.03;;;19.79;93.59
64933;BME280;51446;53.850;10.662;2022-08-19T04:11:10;101073.66;;;19.58;91.38
64933;BME280;51446;53.850;10.662;2022-08-19T04:13:36;101068.28;;;19.62;91.69
64933;BME280;51446;53.850;10.662;2022-08-19T04:16:02;101069.50;;;19.42;91.41
64933;BME280;51446;53.850;10.662;2022-08-19T04:18:28;101067.31;;;19.66;92.28
64933;BME280;51446;53.850;10.662;2022-08-19T04:20:55;101074.66;;;20.04;88.98
64933;BME280;51446;53.850;10.662;2022-08-19T04:23:20;101088.63;;;20.17;90.44
64933;BME280;51446;53.850;10.662;2022-08-19T04:25:45;101082.84;;;20.40;86.08
64933;BME280;51446;53.850;10.662;2022-08-19T04:28:12;101078.09;;;20.11;86.14
64933;BME280;51446;53.850;10.662;2022-08-19T04:30:49;101076.00;;;20.72;84.62
64933;BME280;51446;53.850;10.662;2022-08-19T04:33:17;101077.09;;;20.15;85.51
64933;BME280;51446;53.850;10.662;2022-08-19T04:35:45;101080.13;;;19.97;88.16
64933;BME280;51446;53.850;10.662;2022-08-19T04:38:12;101079.53;;;19.79;87.32
64933;BME280;51446;53.850;10.662;2022-08-19T04:40:46;101082.50;;;20.12;87.93
64933;BME280;51446;53.850;10.662;2022-08-19T04:43:32;101080.59;;;20.19;89.34
64933;BME280;51446;53.850;10.662;2022-08-19T04:45:58;101080.72;;;20.13;86.31
64933;BME280;51446;53.850;10.662;2022-08-19T04:48:23;101085.09;;;20.17;87.79
64933;BME280;51446;53.850;10.662;2022-08-19T04:50:53;101078.75;;;20.68;83.61
64933;BME280;51446;53.850;10.662;2022-08-19T04:53:26;101083.16;;;20.70;83.36
64933;BME280;51446;53.850;10.662;2022-08-19T04:55:57;101076.03;;;20.25;86.03
64933;BME280;51446;53.850;10.662;2022-08-19T04:58:24;101078.69;;;20.27;87.00
64933;BME280;51446;53.850;10.662;2022-08-19T05:00:50;101086.63;;;19.80;87.01
64933;BME280;51446;53.850;10.662;2022-08-19T05:03:16;101087.13;;;20.01;88.95
64933;BME280;51446;53.850;10.662;2022-08-19T05:05:42;101086.13;;;20.09;86.63
64933;BME280;51446;53.850;10.662;2022-08-19T05:08:08;101096.00;;;20.48;85.90
64933;BME280;51446;53.850;10.662;2022-08-19T05:10:36;101091.88;;;20.33;87.05
64933;BME280;51446;53.850;10.662;2022-08-19T05:13:02;101089.88;;;19.96;86.58
64933;BME280;51446;53.850;10.662;2022-08-19T05:15:28;101094.22;;;20.02;88.55
64933;BME280;51446;53.850;10.662;2022-08-19T05:17:53;101087.22;;;19.96;87.49
64933;BME280;51446;53.850;10.662;2022-08-19T05:20:38;101092.59;;;19.95;87.19
64933;BME280;51446;53.850;10.662;2022-08-19T05:23:22;101096.28;;;19.86;88.83
64933;BME280;51446;53.850;10.662;2022-08-19T05:25:47;101104.00;;;20.48;86.85
64933;BME280;51446;53.850;10.662;2022-08-19T05:28:13;101098.59;;;20.06;86.14
64933;BME280;51446;53.850;10.662;2022-08-19T05:30:38;101101.69;;;19.81;88.07
64933;BME280;51446;53.850;10.662;2022-08-19T05:33:05;101098.34;;;19.68;89.78
64933;BME280;51446;53.850;10.662;2022-08-19T05:35:31;101097.81;;;19.45;90.64
64933;BME280;51446;53.850;10.662;2022-08-19T05:37:56;101099.50;;;19.50;91.37
64933;BME280;51446;53.850;10.662;2022-08-19T05:40:21;101099.53;;;19.49;91.59
64933;BME280;51446;53.850;10.662;2022-08-19T05:42:47;101103.13;;;19.45;91.70
64933;BME280;51446;53.850;10.662;2022-08-19T05:45:14;101103.06;;;19.51;91.59
64933;BME280;51446;53.850;10.662;2022-08-19T05:47:39;101104.13;;;19.39;92.04
64933;BME280;51446;53.850;10.662;2022-08-19T05:50:05;101111.34;;;19.31;92.02
64933;BME280;51446;53.850;10.662;2022-08-19T05:52:31;101098.00;;;19.34;93.68
64933;BME280;51446;53.850;10.662;2022-08-19T05:54:56;101094.19;;;19.50;92.55
64933;BME280;51446;53.850;10.662;2022-08-19T05:57:22;101085.13;;;19.64;92.00
64933;BME280;51446;53.850;10.662;2022-08-19T05:59:48;101088.91;;;19.47;91.94
64933;BME280;51446;53.850;10.662;2022-08-19T06:02:16;101084.50;;;19.45;91.96
64933;BME280;51446;53.850;10.662;2022-08-19T06:04:41;101084.59;;;19.40;91.79
64933;BME280;51446;53.850;10.662;2022-08-19T06:07:10;101074.78;;;19.45;92.60
64933;BME280;51446;53.850;10.662;2022-08-19T06:09:35;101076.47;;;19.49;92.10
64933;BME280;51446;53.850;10.662;2022-08-19T06:12:02;101081.13;;;19.36;92.66
64933;BME280;51446;53.850;10.662;2022-08-19T06:14:31;101086.44;;;19.36;92.51
64933;BME280;51446;53.850;10.662;2022-08-19T06:16:58;101075.13;;;19.23;93.23
64933;BME280;51446;53.850;10.662;2022-08-19T06:19:26;101090.16;;;19.26;93.39
64933;BME280;51446;53.850;10.662;2022-08-19T06:21:54;101092.78;;;19.28;94.16
64933;BME280;51446;53.850;10.662;2022-08-19T06:24:21;101097.41;;;19.13;94.43
64933;BME280;51446;53.850;10.662;2022-08-19T06:26:50;101094.75;;;19.15;95.00
64933;BME280;51446;53.850;10.662;2022-08-19T06:29:17;101099.16;;;19.14;95.69
64933;BME280;51446;53.850;10.662;2022-08-19T06:31:45;101095.56;;;19.18;94.82
64933;BME280;51446;53.850;10.662;2022-08-19T06:34:12;101098.25;;;19.17;95.19
64933;BME280;51446;53.850;10.662;2022-08-19T06:36:40;101097.56;;;19.02;95.82
64933;BME280;51446;53.850;10.662;2022-08-19T06:39:09;101099.19;;;19.13;95.30
64933;BME280;51446;53.850;10.662;2022-08-19T06:41:43;101095.81;;;19.00;95.78
64933;BME280;51446;53.850;10.662;2022-08-19T06:44:09;101102.75;;;19.13;96.46
64933;BME280;51446;53.850;10.662;2022-08-19T06:46:36;101100.19;;;19.04;96.09
64933;BME280;51446;53.850;10.662;2022-08-19T06:49:02;101092.97;;;19.14;95.93
64933;BME280;51446;53.850;10.662;2022-08-19T06:51:27;101098.53;;;18.95;96.66
64933;BME280;51446;53.850;10.662;2022-08-19T06:53:54;101089.72;;;18.95;96.63
64933;BME280;51446;53.850;10.662;2022-08-19T06:56:26;101090.47;;;19.01;97.35
64933;BME280;51446;53.850;10.662;2022-08-19T06:58:59;101097.78;;;18.84;97.17
64933;BME280;51446;53.850;10.662;2022-08-19T07:01:25;101096.75;;;18.97;98.23
64933;BME280;51446;53.850;10.662;2022-08-19T07:03:50;101093.16;;;19.03;97.59
64933;BME280;51446;53.850;10.662;2022-08-19T07:06:17;101100.00;;;19.18;96.77
64933;BME280;51446;53.850;10.662;2022-08-19T07:08:46;101101.78;;;19.16;96.45
64933;BME280;51446;53.850;10.662;2022-08-19T07:11:15;101098.16;;;19.24;95.79
64933;BME280;51446;53.850;10.662;2022-08-19T07:13:42;101103.47;;;19.23;95.87
64933;BME280;51446;53.850;10.662;2022-08-19T07:16:12;101111.50;;;19.18;96.02
64933;BME280;51446;53.850;10.662;2022-08-19T07:18:38;101100.72;;;19.29;96.06
64933;BME280;51446;53.850;10.662;2022-08-19T07:21:09;101102.00;;;19.03;97.14
64933;BME280;51446;53.850;10.662;2022-08-19T07:23:35;101102.81;;;19.07;97.84
64933;BME280;51446;53.850;10.662;2022-08-19T07:26:06;101100.16;;;19.07;97.50
64933;BME280;51446;53.850;10.662;2022-08-19T07:28:31;101092.09;;;19.13;97.83
64933;BME280;51446;53.850;10.662;2022-08-19T07:30:56;101095.88;;;18.97;98.83
64933;BME280;51446;53.850;10.662;2022-08-19T07:33:22;101102.13;;;18.91;99.50
64933;BME280;51446;53.850;10.662;2022-08-19T07:35:47;101101.03;;;19.09;98.89
64933;BME280;51446;53.850;10.662;2022-08-19T07:38:12;101101.78;;;19.16;98.25
64933;BME280;51446;53.850;10.662;2022-08-19T07:40:38;101104.34;;;19.23;97.43
64933;BME280;51446;53.850;10.662;2022-08-19T07:43:05;101114.06;;;19.28;97.58
64933;BME280;51446;53.850;10.662;2022-08-19T07:45:30;101115.66;;;19.38;97.48
64933;BME280;51446;53.850;10.662;2022-08-19T07:47:57;101123.88;;;19.21;98.05
64933;BME280;51446;53.850;10.662;2022-08-19T07:50:22;101125.00;;;19.06;99.17
64933;BME280;51446;53.850;10.662;2022-08-19T07:52:49;101119.72;;;19.03;99.84
64933;BME280;51446;53.850;10.662;2022-08-19T07:55:18;101123.88;;;19.21;99.94
64933;BME280;51446;53.850;10.662;2022-08-19T07:57:44;101128.34;;;19.20;99.13
64933;BME280;51446;53.850;10.662;2022-08-19T08:00:09;101129.22;;;19.19;98.91
64933;BME280;51446;53.850;10.662;2022-08-19T08:02:35;101132.72;;;19.21;98.86
64933;BME280;51446;53.850;10.662;2022-08-19T08:05:00;101141.69;;;19.17;98.99
64933;BME280;51446;53.850;10.662;2022-08-19T08:07:44;101131.84;;;19.22;99.67
64933;BME280;51446;53.850;10.662;2022-08-19T08:10:28;101139.97;;;19.12;100.00
64933;BME280;51446;53.850;10.662;2022-08-19T08:12:53;101138.19;;;19.12;100.00
64933;BME280;51446;53.850;10.662;2022-08-19T08:15:20;101144.34;;;19.14;99.89
64933;BME280;51446;53.850;10.662;2022-08-19T08:17:45;101145.28;;;19.12;100.00
64933;BME280;51446;53.850;10.662;2022-08-19T08:20:11;101142.63;;;19.13;100.00
64933;BME280;51446;53.850;10.662;2022-08-19T08:22:37;101145.28;;;19.12;100.00
64933;BME280;51446;53.850;10.662;2022-08-19T08:25:26;101154.13;;;19.12;100.00
64933;BME280;51446;53.850;10.662;2022-08-19T08:27:51;101161.19;;;19.15;100.00
64933;BME280;51446;53.850;10.662;2022-08-19T08:30:20;101159.25;;;19.28;100.00
64933;BME280;51446;53.850;10.662;2022-08-19T08:32:47;101162.63;;;19.40;99.26
64933;BME280;51446;53.850;10.662;2022-08-19T08:35:15;101163.63;;;19.30;100.00
64933;BME280;51446;53.850;10.662;2022-08-19T08:37:42;101159.97;;;19.39;100.00
64933;BME280;51446;53.850;10.662;2022-08-19T08:42:48;101168.16;;;19.23;100.00
64933;BME280;51446;53.850;10.662;2022-08-19T08:45:17;101167.19;;;19.31;100.00
64933;BME280;51446;53.850;10.662;2022-08-19T08:47:47;101168.16;;;19.25;100.00
64933;BME280;51446;53.850;10.662;2022-08-19T08:50:50;101173.25;;;19.40;100.00
64933;BME280;51446;53.850;10.662;2022-08-19T08:53:19;101178.59;;;19.39;100.00
64933;BME280;51446;53.850;10.662;2022-08-19T08:55:45;101183.03;;;19.37;100.00
64933;BME280;51446;53.850;10.662;2022-08-19T08:58:32;101177.72;;;19.37;100.00
64933;BME280;51446;53.850;10.662;2022-08-19T09:01:09;101167.84;;;19.47;100.00
64933;BME280;51446;53.850;10.662;2022-08-19T09:03:37;101170.53;;;19.45;100.00
64933;BME280;51446;53.850;10.662;2022-08-19T09:06:10;101164.31;;;19.43;100.00
64933;BME280;51446;53.850;10.662;2022-08-19T09:08:45;101169.44;;;19.57;100.00
64933;BME280;51446;53.850;10.662;2022-08-19T09:11:19;101176.63;;;19.50;100.00
64933;BME280;51446;53.850;10.662;2022-08-19T09:13:59;101172.28;;;19.46;100.00
64933;BME280;51446;53.850;10.662;2022-08-19T09:16:27;101164.13;;;19.57;100.00
64933;BME280;51446;53.850;10.662;2022-08-19T09:19:00;101175.66;;;19.56;100.00
64933;BME280;51446;53.850;10.662;2022-08-19T09:21:26;101175.78;;;19.50;100.00
64933;BME280;51446;53.850;10.662;2022-08-19T09:23:52;101172.97;;;19.57;100.00
64933;BME280;51446;53.850;10.662;2022-08-19T09:26:21;101168.50;;;19.61;100.00
64933;BME280;51446;53.850;10.662;2022-08-19T09:28:49;101172.69;;;19.81;100.00
64933;BME280;51446;53.850;10.662;2022-08-19T09:31:18;101177.13;;;19.79;100.00
64933;BME280;51446;53.850;10.662;2022-08-19T09:33:44;101181.56;;;19.80;100.00
64933;BME280;51446;53.850;10.662;2022-08-19T09:36:12;101173.59;;;19.76;100.00
64933;BME280;51446;53.850;10.662;2022-08-19T09:38:38;101174.72;;;19.60;100.00
64933;BME280;51446;53.850;10.662;2022-08-19T09:41:13;101179.84;;;19.74;100.00
64933;BME280;51446;53.850;10.662;2022-08-19T09:43:40;101173.53;;;19.83;100.00
64933;BME280;51446;53.850;10.662;2022-08-19T09:46:07;101172.69;;;19.81;100.00
64933;BME280;51446;53.850;10.662;2022-08-19T09:48:37;101174.38;;;19.83;100.00
64933;BME280;51446;53.850;10.662;2022-08-19T09:51:12;101173.34;;;19.92;100.00
64933;BME280;51446;53.850;10.662;2022-08-19T09:53:40;101169.88;;;19.88;100.00
64933;BME280;51446;53.850;10.662;2022-08-19T09:56:06;101162.50;;;20.04;100.00
64933;BME280;51446;53.850;10.662;2022-08-19T09:58:32;101164.25;;;20.07;100.00
64933;BME280;51446;53.850;10.662;2022-08-19T10:00:59;101168.91;;;19.94;100.00
64933;BME280;51446;53.850;10.662;2022-08-19T10:03:26;101175.00;;;20.02;100.00
64933;BME280;51446;53.850;10.662;2022-08-19T10:05:52;101171.56;;;19.94;100.00
64933;BME280;51446;53.850;10.662;2022-08-19T10:08:20;101174.09;;;20.02;100.00
64933;BME280;51446;53.850;10.662;2022-08-19T10:10:47;101164.50;;;19.91;100.00
64933;BME280;51446;53.850;10.662;2022-08-19T10:13:15;101171.50;;;19.97;100.00
64933;BME280;51446;53.850;10.662;2022-08-19T10:15:42;101164.97;;;20.15;100.00
64933;BME280;51446;53.850;10.662;2022-08-19T10:18:07;101172.03;;;20.18;100.00
64933;BME280;51446;53.850;10.662;2022-08-19T10:20:33;101168.66;;;20.09;100.00
64933;BME280;51446;53.850;10.662;2022-08-19T10:23:01;101154.56;;;20.03;100.00
64933;BME280;51446;53.850;10.662;2022-08-19T10:25:26;101172.19;;;20.10;100.00
64933;BME280;51446;53.850;10.662;2022-08-19T10:27:52;101173.09;;;20.07;100.00
64933;BME280;51446;53.850;10.662;2022-08-19T10:30:19;101174.03;;;20.05;100.00
64933;BME280;51446;53.850;10.662;2022-08-19T10:32:44;101180.38;;;19.96;100.00
64933;BME280;51446;53.850;10.662;2022-08-19T10:35:13;101179.28;;;20.11;100.00
64933;BME280;51446;53.850;10.662;2022-08-19T10:37:39;101177.63;;;20.04;100.00
64933;BME280;51446;53.850;10.662;2022-08-19T10:40:07;101171.69;;;19.88;100.00
64933;BME280;51446;53.850;10.662;2022-08-19T10:42:34;101176.94;;;19.91;100.00
64933;BME280;51446;53.850;10.662;2022-08-19T10:45:00;101176.03;;;19.92;100.00
64933;BME280;51446;53.850;10.662;2022-08-19T10:47:25;101170.88;;;19.81;100.00
64933;BME280;51446;53.850;10.662;2022-08-19T10:49:52;101171.69;;;19.86;100.00
64933;BME280;51446;53.850;10.662;2022-08-19T10:52:36;101170.91;;;19.78;100.00
64933;BME280;51446;53.850;10.662;2022-08-19T10:55:06;101173.56;;;19.80;100.00
64933;BME280;51446;53.850;10.662;2022-08-19T10:57:50;101175.66;;;19.57;100.00
64933;BME280;51446;53.850;10.662;2022-08-19T11:00:17;101186.94;;;19.72;100.00
64933;BME280;51446;53.850;10.662;2022-08-19T11:02:43;101172.81;;;19.70;100.00
64933;BME280;51446;53.850;10.662;2022-08-19T11:05:08;101185.28;;;19.68;100.00
64933;BME280;51446;53.850;10.662;2022-08-19T11:07:37;101177.44;;;19.57;100.00
64933;BME280;51446;53.850;10.662;2022-08-19T11:10:03;101185.22;;;19.71;100.00
64933;BME280;51446;53.850;10.662;2022-08-19T11:12:28;101175.34;;;19.76;100.00
64933;BME280;51446;53.850;10.662;2022-08-19T11:14:53;101178.03;;;19.74;100.00
64933;BME280;51446;53.850;10.662;2022-08-19T11:17:19;101177.28;;;19.66;100.00
64933;BME280;51446;53.850;10.662;2022-08-19T11:19:45;101176.44;;;19.64;100.00
64933;BME280;51446;53.850;10.662;2022-08-19T11:22:13;101183.28;;;19.84;100.00
64933;BME280;51446;53.850;10.662;2022-08-19T11:24:38;101182.34;;;19.85;100.00
64933;BME280;51446;53.850;10.662;2022-08-19T11:27:08;101177.94;;;19.85;100.00
64933;BME280;51446;53.850;10.662;2022-08-19T11:29:35;101174.28;;;19.91;100.00
64933;BME280;51446;53.850;10.662;2022-08-19T11:32:09;101171.69;;;19.86;100.00
64933;BME280;51446;53.850;10.662;2022-08-19T11:34:35;101181.41;;;19.89;100.00
64933;BME280;51446;53.850;10.662;2022-08-19T11:37:02;101170.66;;;19.95;100.00
64933;BME280;51446;53.850;10.662;2022-08-19T11:39:30;101174.38;;;19.85;100.00
64933;BME280;51446;53.850;10.662;2022-08-19T11:41:57;101178.66;;;19.93;100.00
64933;BME280;51446;53.850;10.662;2022-08-19T11:44:24;101179.59;;;19.91;100.00
64933;BME280;51446;53.850;10.662;2022-08-19T11:46:50;101182.97;;;20.02;100.00
64933;BME280;51446;53.850;10.662;2022-08-19T11:49:18;101182.91;;;20.05;100.00
64933;BME280;51446;53.850;10.662;2022-08-19T11:51:47;101179.09;;;20.20;100.00
64933;BME280;51446;53.850;10.662;2022-08-19T11:54:15;101175.91;;;20.00;100.00
64933;BME280;51446;53.850;10.662;2022-08-19T11:56:42;101177.28;;;20.24;100.00
64933;BME280;51446;53.850;10.662;2022-08-19T11:59:08;101170.63;;;20.47;100.00
64933;BME280;51446;53.850;10.662;2022-08-19T12:01:33;101163.38;;;20.55;98.37
64933;BME280;51446;53.850;10.662;2022-08-19T12:03:59;101165.34;;;20.43;99.05
64933;BME280;51446;53.850;10.662;2022-08-19T12:06:30;101163.25;;;20.61;96.88
64933;BME280;51446;53.850;10.662;2022-08-19T12:08:58;101167.97;;;20.93;96.34
64933;BME280;51446;53.850;10.662;2022-08-19T12:11:24;101172.41;;;21.35;94.90
64933;BME280;51446;53.850;10.662;2022-08-19T12:13:51;101173.75;;;21.55;91.17
64933;BME280;51446;53.850;10.662;2022-08-19T12:16:19;101173.19;;;21.78;90.21
64933;BME280;51446;53.850;10.662;2022-08-19T12:18:44;101173.69;;;21.94;90.07
64933;BME280;51446;53.850;10.662;2022-08-19T12:21:15;101167.88;;;22.12;87.82
64933;BME280;51446;53.850;10.662;2022-08-19T12:23:41;101167.31;;;21.99;86.71
64933;BME280;51446;53.850;10.662;2022-08-19T12:26:08;101171.34;;;21.81;88.23
64933;BME280;51446;53.850;10.662;2022-08-19T12:28:33;101170.19;;;21.92;89.12
64933;BME280;51446;53.850;10.662;2022-08-19T12:30:59;101168.63;;;21.83;89.54
64933;BME280;51446;53.850;10.662;2022-08-19T12:33:24;101173.06;;;21.84;88.89
64933;BME280;51446;53.850;10.662;2022-08-19T12:35:52;101169.41;;;21.88;90.02
64933;BME280;51446;53.850;10.662;2022-08-19T12:38:18;101178.81;;;21.67;89.61
64933;BME280;51446;53.850;10.662;2022-08-19T12:40:47;101169.63;;;21.40;90.61
64933;BME280;51446;53.850;10.662;2022-08-19T12:43:13;101174.69;;;21.11;92.13